Time;durP1;ratioP1;P1;durP2;ratioP2;P2;SDS_P1;SDS_P2;PMS_P1;PMS_P2;Temp;Humidity;BMP_temperature;BMP_pressure;BME280_temperature;BME280_humidity;BME280_pressure;Samples;Min_cycle;Max_cycle;Signal;HPM_P1;HPM_P2
2021/08/13 00:00:36;;;;;;;4.87;4.47;;;;;;;15.54;72.90;97221.67;1737890;80;20917;-81
2021/08/13 00:03:03;;;;;;;8.75;4.42;;;;;;;15.55;73.26;97224.09;1745748;80;20971;-81
2021/08/13 00:05:29;;;;;;;5.03;3.65;;;;;;;15.52;72.64;97223.17;1752211;80;21022;-81
2021/08/13 00:07:55;;;;;;;4.65;3.65;;;;;;;15.51;72.72;97218.13;1744337;80;21012;-81
2021/08/13 00:10:22;;;;;;;5.53;3.90;;;;;;;15.51;72.59;97221.55;1749877;81;20992;-82
2021/08/13 00:12:47;;;;;;;4.42;3.95;;;;;;;15.51;72.41;97220.75;1755664;81;21028;-81
2021/08/13 00:15:13;;;;;;;4.50;4.00;;;;;;;15.50;72.27;97219.94;1758267;80;20983;-81
2021/08/13 00:17:39;;;;;;;5.78;3.87;;;;;;;15.49;72.31;97219.63;1756963;81;20955;-81
2021/08/13 00:20:06;;;;;;;4.80;4.30;;;;;;;15.47;72.65;97212.97;1759705;80;20981;-81
2021/08/13 00:22:32;;;;;;;5.00;3.77;;;;;;;15.44;72.73;97213.33;1749809;80;21091;-81
2021/08/13 00:24:58;;;;;;;4.62;3.65;;;;;;;15.44;72.83;97223.30;1750756;80;21469;-81
2021/08/13 00:27:23;;;;;;;6.47;3.77;;;;;;;15.45;72.74;97228.05;1753900;80;21024;-81
2021/08/13 00:29:49;;;;;;;4.78;3.50;;;;;;;15.45;72.22;97223.61;1752288;80;21029;-82
2021/08/13 00:32:15;;;;;;;5.00;4.17;;;;;;;15.45;72.09;97225.42;1755215;80;21297;-81
2021/08/13 00:34:40;;;;;;;4.70;4.00;;;;;;;15.42;72.00;97218.77;1756012;80;20968;-81
2021/08/13 00:37:06;;;;;;;5.28;4.40;;;;;;;15.41;72.07;97224.20;1746211;81;20999;-81
2021/08/13 00:39:32;;;;;;;5.33;3.83;;;;;;;15.41;72.57;97231.55;1750865;80;21460;-81
2021/08/13 00:41:58;;;;;;;5.12;3.65;;;;;;;15.39;72.50;97230.94;1737914;81;21009;-81
2021/08/13 00:44:24;;;;;;;5.50;3.67;;;;;;;15.40;73.18;97223.89;1715724;81;21029;-81
2021/08/13 00:46:50;;;;;;;5.03;3.87;;;;;;;15.40;72.87;97217.34;1713017;82;21088;-81
2021/08/13 00:49:15;;;;;;;4.37;3.80;;;;;;;15.39;72.56;97220.96;1737242;81;21357;-81
2021/08/13 00:51:41;;;;;;;5.90;4.70;;;;;;;15.37;72.91;97219.84;1739130;81;20941;-81
2021/08/13 00:54:07;;;;;;;4.22;3.70;;;;;;;15.36;72.63;97220.85;1686970;83;21293;-82
2021/08/13 00:56:33;;;;;;;4.30;3.90;;;;;;;15.36;72.75;97221.35;1737901;81;20917;-81
2021/08/13 00:58:59;;;;;;;3.80;3.40;;;;;;;15.40;72.63;97214.72;1739158;81;20980;-81
2021/08/13 01:01:24;;;;;;;3.70;3.40;;;;;;;15.42;72.71;97220.58;1689976;83;22279;-81
2021/08/13 01:03:50;;;;;;;4.42;3.65;;;;;;;15.40;72.80;97220.77;1709995;82;20982;-81
2021/08/13 01:06:16;;;;;;;5.28;3.83;;;;;;;15.38;72.75;97224.08;1716172;82;20984;-81
2021/08/13 01:08:42;;;;;;;5.70;3.90;;;;;;;15.35;73.03;97218.42;1716416;82;21432;-81
2021/08/13 01:11:19;;;;;;;5.05;3.80;;;;;;;15.34;72.92;97216.81;1706664;82;21008;-81
2021/08/13 01:14:13;;;;;;;4.35;3.55;;;;;;;15.33;73.36;97220.43;1717010;82;21458;-81
2021/08/13 01:16:42;;;;;;;5.00;3.35;;;;;;;15.32;72.87;97218.31;1703080;84;21434;-81
2021/08/13 01:19:17;;;;;;;3.72;3.35;;;;;;;15.31;72.76;97208.84;1708600;82;20977;-80
2021/08/13 01:21:54;;;;;;;4.17;3.55;;;;;;;15.30;72.41;97211.96;1735760;81;20991;-80
2021/08/13 01:24:23;;;;;;;4.67;3.77;;;;;;;15.29;72.46;97212.13;1741410;81;21083;-81
2021/08/13 01:27:00;;;;;;;6.30;4.15;;;;;;;15.25;72.61;97216.94;1703991;84;20991;-80
2021/08/13 01:29:55;;;;;;;4.60;3.80;;;;;;;15.23;72.78;97220.25;1713595;82;20951;-80
2021/08/13 01:32:43;;;;;;;4.10;3.70;;;;;;;15.22;73.00;97222.56;1715421;82;21021;-81
2021/08/13 01:35:30;;;;;;;4.30;3.17;;;;;;;15.21;72.44;97217.02;1730625;81;21005;-81
2021/08/13 01:38:03;;;;;;;4.33;3.67;;;;;;;15.23;72.36;97221.56;1696776;83;20989;-81
2021/08/13 01:40:29;;;;;;;4.70;3.83;;;;;;;15.23;72.34;97222.06;1707316;82;21091;-81
2021/08/13 01:42:55;;;;;;;5.03;3.83;;;;;;;15.23;72.86;97222.06;1709834;82;22088;-80
2021/08/13 01:45:25;;;;;;;6.53;4.95;;;;;;;15.22;73.09;97213.39;1735421;80;21036;-81
2021/08/13 01:47:52;;;;;;;5.30;3.75;;;;;;;15.22;73.86;97216.52;1705344;82;21040;-81
2021/08/13 01:50:18;;;;;;;5.75;4.15;;;;;;;15.22;73.72;97212.09;1690278;82;20976;-81
2021/08/13 01:52:44;;;;;;;4.97;4.37;;;;;;;15.24;73.87;97207.97;1726962;80;21063;-80
2021/08/13 01:55:11;;;;;;;4.83;4.08;;;;;;;15.24;73.81;97207.97;1744395;80;21420;-81
2021/08/13 01:57:37;;;;;;;5.65;4.08;;;;;;;15.25;73.67;97206.97;1716272;80;21090;-81
2021/08/13 02:00:05;;;;;;;4.72;4.33;;;;;;;15.25;73.17;97201.73;1709978;83;20999;-81
2021/08/13 02:02:31;;;;;;;6.87;4.60;;;;;;;15.19;73.84;97192.03;1708340;82;21045;-81
2021/08/13 02:04:57;;;;;;;5.03;4.12;;;;;;;15.23;73.61;97201.92;1714335;82;20988;-80
2021/08/13 02:07:23;;;;;;;4.53;3.52;;;;;;;15.23;73.45;97208.47;1710716;83;20971;-82
2021/08/13 02:09:48;;;;;;;4.42;4.03;;;;;;;15.27;73.53;97206.27;1711008;82;21060;-81
2021/08/13 02:12:14;;;;;;;4.85;4.08;;;;;;;15.28;73.76;97207.89;1753831;81;20975;-81
2021/08/13 02:14:40;;;;;;;4.62;4.20;;;;;;;15.29;73.57;97206.42;1710137;82;20960;-81
2021/08/13 02:17:11;;;;;;;5.60;4.62;;;;;;;15.28;73.76;97202.66;1707979;82;21015;-81
2021/08/13 02:19:47;;;;;;;4.87;3.90;;;;;;;15.24;73.91;97203.54;1719514;83;21001;-81
2021/08/13 02:22:13;;;;;;;4.60;4.12;;;;;;;15.23;73.70;97202.42;1698504;83;21040;-80
2021/08/13 02:24:39;;;;;;;5.92;4.10;;;;;;;15.25;73.52;97205.66;1693052;83;21037;-81
2021/08/13 02:27:05;;;;;;;5.15;4.65;;;;;;;15.26;73.71;97210.70;1693345;83;21342;-80
2021/08/13 02:29:32;;;;;;;4.50;4.10;;;;;;;15.27;73.67;97208.89;1721120;81;21024;-80
2021/08/13 02:31:57;;;;;;;4.35;3.95;;;;;;;15.25;73.59;97204.34;1715971;82;21455;-81
2021/08/13 02:34:23;;;;;;;5.33;4.42;;;;;;;15.23;73.39;97204.55;1725162;81;20969;-81
2021/08/13 02:37:22;;;;;;;4.72;4.00;;;;;;;15.21;73.31;97201.81;1721962;83;20990;-81
2021/08/13 02:40:02;;;;;;;6.87;4.15;;;;;;;15.19;73.78;97201.20;1723129;81;21214;-80
2021/08/13 02:42:42;;;;;;;3.72;3.33;;;;;;;15.20;73.65;97198.88;1707028;83;21008;-81
2021/08/13 02:45:09;;;;;;;5.65;3.55;;;;;;;15.20;73.51;97202.31;1722573;81;21000;-80
2021/08/13 02:47:35;;;;;;;5.10;4.00;;;;;;;15.21;73.44;97200.00;1690080;81;21000;-80
2021/08/13 02:50:06;;;;;;;4.25;3.85;;;;;;;15.22;73.51;97203.42;1719215;81;21020;-81
2021/08/13 02:52:53;;;;;;;5.65;4.50;;;;;;;15.21;73.44;97197.88;1716351;83;20992;-81
2021/08/13 02:55:27;;;;;;;4.65;4.25;;;;;;;15.20;73.65;97197.58;1717813;81;21036;-80
2021/08/13 02:57:54;;;;;;;4.08;3.65;;;;;;;15.19;73.84;97197.27;1718276;81;20922;-80
2021/08/13 03:00:20;;;;;;;4.70;3.33;;;;;;;15.20;73.74;97189.72;1693427;83;20973;-80
2021/08/13 03:02:47;;;;;;;6.10;3.90;;;;;;;15.20;73.46;97197.58;1718453;81;21354;-81
2021/08/13 03:05:13;;;;;;;4.92;4.03;;;;;;;15.19;73.61;97198.08;1695089;83;21009;-81
2021/08/13 03:07:39;;;;;;;6.22;4.60;;;;;;;15.16;73.61;97195.84;1718421;83;22050;-81
2021/08/13 03:10:07;;;;;;;4.58;4.00;;;;;;;15.13;73.75;97192.77;1722546;81;20973;-81
2021/08/13 03:12:32;;;;;;;4.22;3.83;;;;;;;15.10;73.91;97195.28;1691899;83;20985;-80
2021/08/13 03:14:59;;;;;;;4.50;4.10;;;;;;;15.08;73.91;97199.89;1719640;83;20989;-81
2021/08/13 03:17:24;;;;;;;4.58;3.67;;;;;;;15.07;73.79;97203.52;1721628;81;20972;-80
2021/08/13 03:19:50;;;;;;;4.78;4.00;;;;;;;15.10;73.72;97210.17;1725862;81;20984;-81
2021/08/13 03:22:19;;;;;;;4.37;3.98;;;;;;;15.11;73.58;97207.36;1718684;83;22143;-80
2021/08/13 03:24:46;;;;;;;4.87;3.87;;;;;;;15.11;73.54;97206.55;1688866;83;20984;-81
2021/08/13 03:27:12;;;;;;;5.95;3.90;;;;;;;15.12;73.68;97217.33;1718486;81;21277;-81
2021/08/13 03:29:37;;;;;;;5.37;4.53;;;;;;;15.11;73.82;97206.55;1722004;81;21419;-80
2021/08/13 03:32:04;;;;;;;4.00;3.40;;;;;;;15.09;74.10;97205.94;1717764;81;20977;-81
2021/08/13 03:34:30;;;;;;;3.80;3.40;;;;;;;15.10;74.15;97208.86;1693676;83;21091;-81
2021/08/13 03:36:57;;;;;;;4.62;3.72;;;;;;;15.11;74.11;97204.75;1739912;81;21042;-80
2021/08/13 03:39:23;;;;;;;4.92;4.42;;;;;;;15.13;74.09;97203.24;1720034;81;21457;-81
2021/08/13 03:41:49;;;;;;;5.72;4.15;;;;;;;15.13;74.42;97194.92;1712448;83;21041;-81
2021/08/13 03:44:15;;;;;;;4.28;3.85;;;;;;;15.13;74.48;97195.39;1712182;82;20984;-81
2021/08/13 03:46:40;;;;;;;5.30;3.60;;;;;;;15.14;74.24;97190.50;1707785;83;21006;-81
2021/08/13 03:49:07;;;;;;;5.65;3.83;;;;;;;15.15;74.31;97185.56;1740487;81;21035;-81
2021/08/13 03:51:33;;;;;;;4.75;4.12;;;;;;;15.17;74.60;97186.98;1739845;81;21422;-81
2021/08/13 03:53:59;;;;;;;5.42;4.22;;;;;;;15.19;74.20;97181.06;1733907;81;20992;-81
2021/08/13 03:56:25;;;;;;;4.50;4.10;;;;;;;15.22;74.26;97180.67;1740020;81;20948;-81
2021/08/13 03:58:50;;;;;;;5.45;4.55;;;;;;;15.24;74.41;97185.22;1732907;81;20953;-81
2021/08/13 04:01:16;;;;;;;4.45;4.03;;;;;;;15.28;74.52;97181.70;1751584;81;20912;-81
2021/08/13 04:03:42;;;;;;;4.53;4.08;;;;;;;15.29;74.59;97189.87;1745783;81;21521;-81
2021/08/13 04:06:07;;;;;;;5.15;3.17;;;;;;;15.33;74.61;97197.67;1739308;81;20969;-81
2021/08/13 04:08:33;;;;;;;4.47;4.00;;;;;;;15.39;74.89;97196.89;1734792;81;20957;-81
2021/08/13 04:10:59;;;;;;;5.35;4.53;;;;;;;15.46;75.07;97193.02;1747952;81;21088;-81
2021/08/13 04:13:25;;;;;;;7.03;4.53;;;;;;;15.50;75.20;97187.20;1743249;81;21414;-80
2021/08/13 04:15:51;;;;;;;5.17;4.58;;;;;;;15.53;75.27;97182.08;1744140;81;20987;-81
2021/08/13 04:18:17;;;;;;;4.50;3.98;;;;;;;15.55;75.50;97173.02;1747015;81;21353;-81
2021/08/13 04:20:43;;;;;;;4.33;3.70;;;;;;;15.59;75.41;97178.70;1752565;80;21460;-81
2021/08/13 04:23:08;;;;;;;5.08;4.17;;;;;;;15.64;75.59;97182.07;1738242;80;21008;-81
2021/08/13 04:25:34;;;;;;;5.45;4.67;;;;;;;15.69;75.82;97180.48;1736497;81;20977;-81
2021/08/13 04:28:00;;;;;;;6.08;4.42;;;;;;;15.72;75.93;97185.83;1739185;81;21020;-81
2021/08/13 04:30:25;;;;;;;4.35;3.95;;;;;;;15.74;75.85;97183.81;1739051;81;20999;-81
2021/08/13 04:32:51;;;;;;;6.03;3.77;;;;;;;15.79;75.95;97190.11;1751887;80;21288;-81
2021/08/13 04:35:17;;;;;;;5.35;3.45;;;;;;;15.86;75.95;97192.25;1742661;81;21407;-81
2021/08/13 04:37:42;;;;;;;6.62;4.25;;;;;;;15.93;76.13;97199.31;1745908;81;20934;-81
2021/08/13 04:40:09;;;;;;;4.72;4.22;;;;;;;15.98;76.53;97201.68;1745870;81;21538;-81
2021/08/13 04:42:35;;;;;;;5.50;4.45;;;;;;;16.02;76.73;97200.28;1752901;81;20976;-81
2021/08/13 04:45:01;;;;;;;5.45;3.95;;;;;;;16.05;76.80;97200.38;1750855;80;21041;-81
2021/08/13 04:47:26;;;;;;;5.37;3.85;;;;;;;16.11;77.10;97203.55;1750441;80;21000;-81
2021/08/13 04:49:52;;;;;;;5.50;3.60;;;;;;;16.17;77.29;97204.88;1710107;83;21005;-81
2021/08/13 04:52:20;;;;;;;4.28;3.62;;;;;;;16.22;77.01;97195.09;1720500;81;20985;-81
2021/08/13 04:54:50;;;;;;;4.97;4.28;;;;;;;16.28;77.05;97194.83;1711118;83;20997;-81
2021/08/13 04:57:14;;;;;;;5.37;4.42;;;;;;;16.34;77.25;97197.96;1708017;82;20990;-81
2021/08/13 04:59:40;;;;;;;4.75;4.25;;;;;;;16.37;77.52;97200.19;1705619;82;21389;-81
2021/08/13 05:02:06;;;;;;;5.35;4.15;;;;;;;16.40;77.52;97205.83;1708057;82;21024;-81
2021/08/13 05:04:32;;;;;;;4.37;3.98;;;;;;;16.48;77.62;97200.92;1742251;80;21005;-81
2021/08/13 05:06:57;;;;;;;3.95;3.55;;;;;;;16.55;77.69;97203.05;1715026;82;20935;-81
2021/08/13 05:09:23;;;;;;;5.40;3.77;;;;;;;16.61;77.93;97200.95;1705601;82;20993;-81
2021/08/13 05:11:50;;;;;;;6.00;4.40;;;;;;;16.68;78.14;97201.79;1744998;80;20961;-82
2021/08/13 05:14:16;;;;;;;5.62;5.00;;;;;;;16.75;78.16;97204.41;1760968;80;21007;-81
2021/08/13 05:16:41;;;;;;;4.47;4.08;;;;;;;16.80;78.21;97207.27;1733531;82;20944;-82
2021/08/13 05:19:07;;;;;;;4.70;3.98;;;;;;;16.84;78.34;97208.47;1728572;82;20953;-81
2021/08/13 05:21:38;;;;;;;4.37;3.92;;;;;;;16.90;78.48;97212.91;1738182;81;21338;-81
2021/08/13 05:24:05;;;;;;;3.95;3.55;;;;;;;16.97;78.55;97210.30;1702956;82;21043;-81
2021/08/13 05:26:31;;;;;;;3.90;3.27;;;;;;;17.01;78.48;97203.13;1739496;81;21016;-81
2021/08/13 05:28:57;;;;;;;4.97;3.80;;;;;;;17.08;78.41;97210.52;1744305;81;21413;-81
2021/08/13 05:31:22;;;;;;;5.65;4.08;;;;;;;17.18;78.43;97211.91;1739635;81;20986;-81
2021/08/13 05:33:48;;;;;;;4.67;4.03;;;;;;;17.24;78.46;97214.52;1745630;80;20992;-81
2021/08/13 05:36:16;;;;;;;5.25;4.62;;;;;;;17.30;78.66;97212.91;1748424;80;21457;-81
2021/08/13 05:38:42;;;;;;;4.80;3.65;;;;;;;17.37;78.80;97212.39;1748061;80;20995;-81
2021/08/13 05:41:07;;;;;;;4.22;3.30;;;;;;;17.43;78.80;97212.09;1745123;81;21580;-82
2021/08/13 05:43:33;;;;;;;5.53;4.00;;;;;;;17.48;78.74;97217.53;1743369;81;21601;-81
2021/08/13 05:45:59;;;;;;;4.83;3.85;;;;;;;17.52;78.85;97216.91;1755181;80;21058;-81
2021/08/13 05:48:24;;;;;;;4.55;3.60;;;;;;;17.55;78.69;97213.06;1748896;80;21343;-82
2021/08/13 05:50:50;;;;;;;6.10;4.45;;;;;;;17.57;78.67;97211.87;1709443;82;21336;-81
2021/08/13 05:53:16;;;;;;;5.20;4.50;;;;;;;17.59;78.70;97216.41;1706845;82;20970;-81
2021/08/13 05:55:42;;;;;;;4.37;3.45;;;;;;;17.64;78.83;97214.48;1712769;82;20955;-81
2021/08/13 05:58:07;;;;;;;5.95;3.65;;;;;;;17.72;78.92;97217.41;1707757;82;21396;-81
2021/08/13 06:00:33;;;;;;;4.35;3.60;;;;;;;17.80;78.98;97214.06;1713752;82;20996;-82
2021/08/13 06:03:01;;;;;;;4.72;3.10;;;;;;;17.92;79.03;97208.47;1735800;81;21029;-81
2021/08/13 06:05:27;;;;;;;6.55;3.65;;;;;;;18.02;79.10;97213.77;1712235;82;20994;-81
2021/08/13 06:07:52;;;;;;;7.00;4.28;;;;;;;18.10;79.09;97209.61;1709856;82;21066;-81
2021/08/13 06:10:19;;;;;;;5.28;3.87;;;;;;;18.16;79.27;97208.77;1707822;82;21562;-81
2021/08/13 06:12:46;;;;;;;6.50;3.67;;;;;;;18.22;79.16;97206.60;1722134;81;20961;-82
2021/08/13 06:15:12;;;;;;;5.10;3.50;;;;;;;18.25;79.10;97206.20;1725591;81;21035;-81
2021/08/13 06:17:41;;;;;;;3.72;3.33;;;;;;;18.32;79.00;97204.84;1730180;81;21372;-82
2021/08/13 06:20:08;;;;;;;4.22;3.67;;;;;;;18.38;78.85;97198.73;1725688;81;21423;-81
2021/08/13 06:22:34;;;;;;;4.92;3.52;;;;;;;18.40;79.03;97196.21;1712177;83;21474;-81
2021/08/13 06:25:00;;;;;;;3.87;3.35;;;;;;;18.42;79.11;97192.86;1720002;81;20973;-81
2021/08/13 06:27:26;;;;;;;3.95;3.40;;;;;;;18.42;79.15;97194.17;1711414;81;20989;-81
2021/08/13 06:29:51;;;;;;;3.42;3.12;;;;;;;18.45;79.02;97195.57;1692591;82;21395;-81
2021/08/13 06:32:19;;;;;;;4.25;3.50;;;;;;;18.49;79.15;97198.07;1725182;82;21375;-81
2021/08/13 06:34:46;;;;;;;5.22;3.65;;;;;;;18.52;78.97;97201.59;1691167;83;20982;-81
2021/08/13 06:37:12;;;;;;;5.65;3.37;;;;;;;18.57;78.67;97204.41;1710696;81;21044;-81
2021/08/13 06:39:37;;;;;;;4.95;3.55;;;;;;;18.62;78.31;97206.40;1717761;81;20985;-81
2021/08/13 06:42:04;;;;;;;4.87;3.47;;;;;;;18.62;78.04;97205.09;1716652;81;21292;-81
2021/08/13 06:44:30;;;;;;;4.25;3.42;;;;;;;18.59;77.68;97201.05;1707430;81;21096;-81
2021/08/13 06:46:56;;;;;;;3.83;3.42;;;;;;;18.59;77.46;97204.49;1713771;81;21089;-81
2021/08/13 06:49:21;;;;;;;5.35;3.05;;;;;;;18.65;77.10;97204.69;1716650;81;21352;-81
2021/08/13 06:51:47;;;;;;;4.55;3.50;;;;;;;18.74;77.21;97199.47;1718670;83;20948;-81
2021/08/13 06:54:13;;;;;;;4.67;3.62;;;;;;;18.83;77.46;97204.76;1694158;81;20953;-81
2021/08/13 06:56:38;;;;;;;3.95;3.55;;;;;;;18.89;77.26;97197.34;1743021;81;21332;-81
2021/08/13 06:59:04;;;;;;;4.83;3.47;;;;;;;18.94;76.95;97198.81;1736653;80;21013;-81
2021/08/13 07:01:30;;;;;;;3.92;3.40;;;;;;;18.99;77.70;97199.48;1742743;80;20987;-81
2021/08/13 07:03:56;;;;;;;3.83;2.90;;;;;;;19.03;77.96;97200.66;1731389;80;21382;-81
2021/08/13 07:06:21;;;;;;;5.30;3.47;;;;;;;19.05;77.68;97204.71;1732576;82;20972;-81
2021/08/13 07:08:47;;;;;;;5.17;3.58;;;;;;;19.07;76.73;97206.61;1735284;81;20947;-81
2021/08/13 07:11:13;;;;;;;5.83;4.30;;;;;;;19.11;76.95;97207.79;1728057;80;20988;-81
2021/08/13 07:13:40;;;;;;;4.42;3.85;;;;;;;19.21;77.16;97210.46;1712805;82;21494;-81
2021/08/13 07:16:05;;;;;;;4.42;3.20;;;;;;;19.26;77.42;97204.83;1747500;80;21032;-82
2021/08/13 07:18:31;;;;;;;4.12;3.20;;;;;;;19.41;77.81;97216.35;1735825;80;21044;-81
2021/08/13 07:20:57;;;;;;;7.83;5.58;;;;;;;19.52;77.49;97215.62;1731231;80;21389;-81
2021/08/13 07:23:22;;;;;;;5.22;3.83;;;;;;;19.65;77.15;97218.67;1734813;80;20987;-81
2021/08/13 07:25:48;;;;;;;5.60;4.17;;;;;;;19.73;77.02;97219.72;1656663;84;20970;-81
2021/08/13 07:28:14;;;;;;;4.10;3.70;;;;;;;19.78;76.87;97218.54;1731346;80;21312;-81
2021/08/13 07:30:40;;;;;;;5.90;5.30;;;;;;;19.84;77.14;97220.80;1735289;81;20964;-81
2021/08/13 07:33:05;;;;;;;7.67;4.05;;;;;;;19.93;77.17;97218.17;1715970;82;20969;-81
2021/08/13 07:35:31;;;;;;;3.70;3.25;;;;;;;19.99;77.00;97218.60;1705389;82;21005;-82
2021/08/13 07:37:57;;;;;;;5.45;3.58;;;;;;;20.06;77.37;97217.52;1737901;80;20941;-81
2021/08/13 07:40:23;;;;;;;3.90;3.42;;;;;;;20.12;77.00;97225.05;1735632;80;21011;-82
2021/08/13 07:42:50;;;;;;;5.20;4.70;;;;;;;20.17;77.04;97222.54;1742101;82;21051;-81
2021/08/13 07:45:16;;;;;;;6.42;4.75;;;;;;;20.23;77.12;97220.87;1715815;81;21025;-82
2021/08/13 07:47:41;;;;;;;5.45;4.40;;;;;;;20.29;76.75;97222.61;1741404;80;20940;-82
2021/08/13 07:50:08;;;;;;;5.67;4.80;;;;;;;20.37;76.93;97224.95;1730636;81;20948;-81
2021/08/13 07:52:34;;;;;;;4.30;3.90;;;;;;;20.43;76.69;97231.20;1732326;80;21339;-81
2021/08/13 07:55:00;;;;;;;9.15;5.95;;;;;;;20.49;76.81;97226.33;1734241;82;20976;-81
2021/08/13 07:57:26;;;;;;;6.62;5.80;;;;;;;20.53;76.18;97227.00;1732328;81;20952;-82
2021/08/13 07:59:52;;;;;;;6.20;4.72;;;;;;;20.63;75.99;97232.53;1748246;80;20971;-81
2021/08/13 08:02:18;;;;;;;8.20;5.40;;;;;;;20.68;76.71;97237.96;1742868;80;20971;-81
2021/08/13 08:04:45;;;;;;;6.22;4.87;;;;;;;20.71;75.45;97234.06;1749786;80;21007;-81
2021/08/13 08:07:11;;;;;;;6.58;5.67;;;;;;;20.84;75.26;97238.36;1718488;82;21003;-81
2021/08/13 08:09:37;;;;;;;6.15;5.55;;;;;;;20.91;75.33;97243.81;1727825;82;20999;-81
2021/08/13 08:12:03;;;;;;;7.17;5.70;;;;;;;21.04;75.68;97250.74;1703989;82;21550;-81
2021/08/13 08:14:29;;;;;;;7.03;5.50;;;;;;;21.11;75.04;97248.79;1715836;82;21404;-81
2021/08/13 08:16:55;;;;;;;8.25;5.58;;;;;;;21.19;75.37;97251.12;1698072;82;21004;-81
2021/08/13 08:19:21;;;;;;;7.12;5.33;;;;;;;21.27;73.58;97242.06;1743039;80;21000;-81
2021/08/13 08:21:47;;;;;;;7.97;5.78;;;;;;;21.36;73.25;97242.55;1735314;80;20937;-81
2021/08/13 08:24:13;;;;;;;7.50;5.45;;;;;;;21.45;73.03;97245.12;1732170;80;21321;-81
2021/08/13 08:26:40;;;;;;;6.05;5.12;;;;;;;21.60;72.36;97241.50;1739266;80;20965;-81
2021/08/13 08:29:08;;;;;;;6.08;5.33;;;;;;;21.72;72.57;97237.53;1738403;80;20983;-81
2021/08/13 08:31:33;;;;;;;7.47;5.20;;;;;;;21.83;71.13;97236.21;1720862;82;20973;-81
2021/08/13 08:33:59;;;;;;;8.48;5.67;;;;;;;21.96;72.69;97243.06;1718443;82;20986;-82
2021/08/13 08:36:25;;;;;;;9.73;5.78;;;;;;;22.05;71.59;97246.20;1707522;83;20910;-81
2021/08/13 08:38:51;;;;;;;7.00;4.90;;;;;;;22.21;70.93;97242.02;1705016;83;20934;-82
2021/08/13 08:41:17;;;;;;;6.35;5.70;;;;;;;22.39;71.79;97241.84;1695787;83;20926;-81
2021/08/13 08:43:43;;;;;;;6.78;4.87;;;;;;;22.51;70.96;97235.20;1693902;82;21415;-81
2021/08/13 08:46:08;;;;;;;8.68;5.17;;;;;;;22.57;71.80;97241.66;1702299;83;21075;-81
2021/08/13 08:48:36;;;;;;;6.35;4.97;;;;;;;22.59;72.29;97238.25;1697328;82;21006;-81
2021/08/13 08:51:03;;;;;;;6.30;4.70;;;;;;;22.65;71.82;97241.30;1712925;81;20998;-83
2021/08/13 08:53:29;;;;;;;8.83;5.67;;;;;;;22.71;71.33;97247.48;1719774;82;21401;-83
2021/08/13 08:55:55;;;;;;;7.67;5.10;;;;;;;22.86;69.39;97248.30;1710166;82;20963;-82
2021/08/13 08:58:23;;;;;;;5.85;5.10;;;;;;;22.96;70.40;97249.81;1720671;81;20952;-82
2021/08/13 09:00:48;;;;;;;6.72;5.17;;;;;;;23.01;70.12;97252.02;1705829;81;20998;-82
2021/08/13 09:03:16;;;;;;;6.03;5.28;;;;;;;23.06;68.30;97257.92;1728644;81;20964;-82
2021/08/13 09:05:43;;;;;;;6.05;5.37;;;;;;;23.13;69.91;97257.26;1732970;81;20960;-82
2021/08/13 09:08:09;;;;;;;5.22;4.72;;;;;;;23.26;70.29;97254.79;1721092;83;21393;-82
2021/08/13 09:10:35;;;;;;;5.97;4.08;;;;;;;23.28;70.10;97252.73;1726800;81;20992;-82
2021/08/13 09:13:04;;;;;;;6.22;4.75;;;;;;;23.32;70.23;97258.63;1707676;81;21070;-82
2021/08/13 09:15:33;;;;;;;5.58;5.08;;;;;;;23.42;69.72;97259.81;1715169;81;20994;-83
2021/08/13 09:18:22;;;;;;;6.87;4.70;;;;;;;23.38;69.56;97260.02;1699099;83;21105;-82
2021/08/13 09:20:56;;;;;;;5.78;4.72;;;;;;;23.35;69.57;97258.66;1715389;81;21059;-83
2021/08/13 09:23:29;;;;;;;5.58;4.70;;;;;;;23.38;69.22;97260.83;1685465;83;21056;-82
2021/08/13 09:25:57;;;;;;;6.60;4.55;;;;;;;23.39;68.75;97264.28;1715156;81;20929;-82
2021/08/13 09:28:46;;;;;;;5.17;3.85;;;;;;;23.42;69.07;97265.92;1724391;81;20965;-83
2021/08/13 09:31:29;;;;;;;5.15;3.90;;;;;;;23.45;69.32;97276.59;1731289;81;21006;-83
2021/08/13 09:34:10;;;;;;;5.55;4.37;;;;;;;23.48;69.41;97272.92;1723745;81;21008;-83
2021/08/13 09:36:39;;;;;;;4.87;4.42;;;;;;;23.60;69.11;97268.90;1714704;82;21013;-82
2021/08/13 09:39:10;;;;;;;5.25;4.75;;;;;;;23.75;69.40;97263.78;1674200;82;21051;-82
2021/08/13 09:41:51;;;;;;;6.50;4.35;;;;;;;23.82;68.71;97264.95;1726015;81;21048;-82
2021/08/13 09:44:37;;;;;;;4.73;3.90;;;;;;;23.76;68.31;97267.27;1705266;82;20962;-82
2021/08/13 09:47:13;;;;;;;7.70;4.78;;;;;;;23.64;68.19;97271.34;1702896;82;21376;-82
2021/08/13 09:49:41;;;;;;;6.03;5.22;;;;;;;23.60;67.68;97273.68;1702170;82;21017;-82
2021/08/13 09:52:18;;;;;;;5.25;4.70;;;;;;;23.56;66.07;97279.14;1735515;81;21007;-83
2021/08/13 09:54:51;;;;;;;5.33;4.83;;;;;;;23.54;67.67;97272.47;1699385;83;21038;-83
2021/08/13 09:57:17;;;;;;;5.22;4.50;;;;;;;23.43;68.83;97270.20;1727406;81;21041;-82
2021/08/13 10:00:00;;;;;;;4.85;3.83;;;;;;;23.35;68.96;97270.59;1704758;82;20915;-82
2021/08/13 10:02:26;;;;;;;5.15;4.45;;;;;;;23.33;68.92;97272.16;1709822;82;20999;-82
2021/08/13 10:04:52;;;;;;;6.05;4.87;;;;;;;23.29;68.82;97269.72;1693763;82;21044;-82
2021/08/13 10:07:20;;;;;;;7.53;4.65;;;;;;;23.24;69.27;97270.14;1729891;80;21020;-82
2021/08/13 10:09:45;;;;;;;5.25;4.35;;;;;;;23.21;69.70;97271.42;1703127;81;22169;-82
2021/08/13 10:12:11;;;;;;;5.70;4.40;;;;;;;23.16;69.45;97266.58;1732733;80;21049;-82
2021/08/13 10:14:40;;;;;;;26.10;10.08;;;;;;;23.12;69.72;97270.23;1732646;82;21000;-82
2021/08/13 10:17:16;;;;;;;5.22;4.72;;;;;;;23.18;70.12;97266.61;1730156;81;20960;-82
2021/08/13 10:19:49;;;;;;;5.05;4.45;;;;;;;23.32;70.13;97275.86;1745573;80;21005;-82
2021/08/13 10:22:18;;;;;;;9.73;6.20;;;;;;;23.48;69.64;97268.95;1707111;82;21034;-82
2021/08/13 10:24:44;;;;;;;67.30;19.98;;;;;;;23.56;69.42;97265.88;1709366;82;21030;-82
2021/08/13 10:27:11;;;;;;;5.83;4.37;;;;;;;23.89;69.57;97272.20;1701997;82;20937;-82
2021/08/13 10:29:37;;;;;;;5.33;4.30;;;;;;;23.89;69.57;97272.20;1713475;82;20937;-82
2021/08/13 10:32:03;;;;;;;8.85;5.03;;;;;;;23.97;69.25;97273.13;1701145;82;20957;-82
2021/08/13 10:34:29;;;;;;;5.35;4.85;;;;;;;24.10;66.63;97266.66;1714017;82;21359;-82
2021/08/13 10:36:55;;;;;;;5.60;4.60;;;;;;;24.08;67.77;97262.09;1702861;82;20969;-82
2021/08/13 10:39:23;;;;;;;5.17;4.67;;;;;;;24.13;68.37;97262.98;1705864;82;21383;-82
2021/08/13 10:42:00;;;;;;;7.62;4.75;;;;;;;24.22;67.91;97256.70;1708255;82;20948;-82
2021/08/13 10:44:30;;;;;;;5.05;4.55;;;;;;;24.28;67.08;97262.38;1708955;82;20958;-82
2021/08/13 10:46:55;;;;;;;6.72;5.00;;;;;;;24.23;67.23;97260.44;1739964;80;20966;-82
2021/08/13 10:49:21;;;;;;;14.87;6.53;;;;;;;24.10;67.38;97255.52;1749375;80;21384;-82
2021/08/13 10:52:02;;;;;;;6.70;4.70;;;;;;;24.16;68.32;97257.17;1726364;81;20950;-82
2021/08/13 10:54:41;;;;;;;6.40;4.65;;;;;;;24.27;66.62;97259.44;1737869;80;20977;-82
2021/08/13 10:57:09;;;;;;;5.28;4.78;;;;;;;24.30;66.90;97259.50;1718920;81;21700;-82
2021/08/13 10:59:46;;;;;;;4.67;4.28;;;;;;;24.30;66.95;97252.33;1704170;82;21311;-82
2021/08/13 11:02:17;;;;;;;5.15;4.47;;;;;;;24.38;67.42;97248.42;1711698;82;21005;-82
2021/08/13 11:04:47;;;;;;;5.15;4.25;;;;;;;24.45;64.83;97242.41;1709794;82;20969;-82
2021/08/13 11:07:13;;;;;;;7.75;4.20;;;;;;;24.53;64.03;97241.42;1691918;82;20946;-82
2021/08/13 11:09:42;;;;;;;4.50;4.08;;;;;;;24.59;62.46;97240.97;1731449;80;20947;-82
2021/08/13 11:12:13;;;;;;;5.65;4.50;;;;;;;24.70;61.58;97237.88;1699717;82;20983;-82
2021/08/13 11:14:55;;;;;;;5.50;4.10;;;;;;;24.80;61.27;97232.14;1713630;82;20994;-82
2021/08/13 11:17:32;;;;;;;;;;;;;;;24.89;60.63;97231.67;1698570;82;21056;-82
2021/08/13 11:19:59;;;;;;;5.87;4.65;;;;;;;25.03;61.48;97229.70;1704195;82;20225;-82
2021/08/13 11:22:28;;;;;;;4.95;4.45;;;;;;;25.09;63.08;97220.73;1709145;82;21071;-82
2021/08/13 11:24:54;;;;;;;5.28;4.47;;;;;;;25.15;63.56;97218.91;1731717;81;21052;-83
2021/08/13 11:27:20;;;;;;;3.98;3.58;;;;;;;25.23;62.00;97215.79;1703487;82;21012;-82
2021/08/13 11:29:46;;;;;;;5.12;4.50;;;;;;;25.31;59.23;97218.49;1715347;81;21307;-82
2021/08/13 11:32:21;;;;;;;6.50;4.12;;;;;;;25.40;58.64;97223.09;1711208;81;20960;-82
2021/08/13 11:35:04;;;;;;;5.08;4.10;;;;;;;25.50;60.26;97221.02;1718389;81;20906;-83
2021/08/13 11:37:41;;;;;;;7.12;4.25;;;;;;;25.50;60.97;97210.90;1726958;81;20981;-82